Time;durP1;ratioP1;P1;durP2;ratioP2;P2;SDS_P1;SDS_P2;PMS_P1;PMS_P2;Temp;Humidity;BMP_temperature;BMP_pressure;BME280_temperature;BME280_humidity;BME280_pressure;Samples;Min_cycle;Max_cycle;Signal;HPM_P1;HPM_P2
2023/08/06 00:01:41;;;;;;;13.60;10.85;;;20.10;99.90;;;;;;5007348;28;20042;-83
2023/08/06 00:04:09;;;;;;;15.32;10.90;;;20.00;99.90;;;;;;5009404;28;20058;-82
2023/08/06 00:06:36;;;;;;;14.45;11.73;;;20.00;99.90;;;;;;5012418;28;20079;-84
2023/08/06 00:09:03;;;;;;;12.68;10.40;;;20.00;99.90;;;;;;5010724;28;20046;-83
2023/08/06 00:11:31;;;;;;;11.88;9.50;;;20.00;99.90;;;;;;5021437;28;20026;-83
2023/08/06 00:13:58;;;;;;;12.90;10.18;;;20.00;99.90;;;;;;5033682;28;20044;-83
2023/08/06 00:16:27;;;;;;;11.77;9.60;;;20.00;99.90;;;;;;5031435;28;20057;-84
2023/08/06 00:18:55;;;;;;;10.27;9.23;;;20.00;99.90;;;;;;5018425;28;20041;-85
2023/08/06 00:21:23;;;;;;;10.82;8.75;;;20.00;99.90;;;;;;5013471;28;20117;-84
2023/08/06 00:23:52;;;;;;;11.98;9.05;;;20.00;99.90;;;;;;5013679;28;20052;-84
2023/08/06 00:26:19;;;;;;;10.65;9.10;;;20.00;99.90;;;;;;5013224;28;20045;-83
2023/08/06 00:28:46;;;;;;;11.75;9.30;;;20.10;99.90;;;;;;5021734;28;20104;-84
2023/08/06 00:31:14;;;;;;;11.82;8.98;;;20.10;99.90;;;;;;5010502;28;20046;-85
2023/08/06 00:33:44;;;;;;;11.40;9.32;;;20.00;99.90;;;;;;5011201;28;20049;-83
2023/08/06 00:36:11;;;;;;;16.65;9.73;;;20.10;99.90;;;;;;5008819;28;20096;-84
2023/08/06 00:38:38;;;;;;;12.80;9.20;;;20.10;99.90;;;;;;5009531;28;20050;-84
2023/08/06 00:41:06;;;;;;;11.98;10.38;;;20.20;99.90;;;;;;5009433;28;20069;-84
2023/08/06 00:43:33;;;;;;;12.73;9.93;;;20.20;99.90;;;;;;5011041;28;20046;-85
2023/08/06 00:46:01;;;;;;;12.50;10.32;;;20.20;99.90;;;;;;5023685;28;20046;-84
2023/08/06 00:48:29;;;;;;;12.77;9.35;;;20.10;99.90;;;;;;5025802;28;20088;-85
2023/08/06 00:50:58;;;;;;;12.98;9.82;;;20.10;99.90;;;;;;5008511;28;20104;-85
2023/08/06 00:53:25;;;;;;;14.15;10.15;;;20.00;99.90;;;;;;5006403;28;20042;-84
2023/08/06 00:55:53;;;;;;;21.58;19.15;;;20.00;99.90;;;;;;5008565;28;20105;-84
2023/08/06 00:58:22;;;;;;;12.15;10.30;;;20.00;99.90;;;;;;5008437;28;20044;-85
2023/08/06 01:00:49;;;;;;;12.93;9.48;;;20.00;99.90;;;;;;5008966;28;20457;-84
2023/08/06 01:03:17;;;;;;;12.02;9.85;;;20.10;99.90;;;;;;5008442;28;20049;-85
2023/08/06 01:05:44;;;;;;;13.77;10.23;;;20.10;99.90;;;;;;5014137;28;20045;-84
2023/08/06 01:08:22;;;;;;;10.68;9.27;;;20.20;99.90;;;;;;5014160;28;20050;-84
2023/08/06 01:11:01;;;;;;;13.25;9.15;;;20.20;99.90;;;;;;5016125;28;20046;-84
2023/08/06 01:13:39;;;;;;;10.95;8.52;;;20.20;99.90;;;;;;5028744;28;20050;-84
2023/08/06 01:16:07;;;;;;;12.00;8.77;;;20.30;99.90;;;;;;5028290;28;20129;-84
2023/08/06 01:18:35;;;;;;;11.15;8.38;;;20.20;99.90;;;;;;5014994;28;20042;-84
2023/08/06 01:21:04;;;;;;;11.93;8.88;;;20.20;99.90;;;;;;5011631;28;20499;-85
2023/08/06 01:23:31;;;;;;;11.77;8.55;;;20.20;99.90;;;;;;5011575;28;20050;-83
2023/08/06 01:26:06;;;;;;;10.07;8.60;;;20.20;99.90;;;;;;5027085;28;20045;-84
2023/08/06 01:28:42;;;;;;;11.23;8.17;;;20.10;99.90;;;;;;5010527;28;20050;-83
2023/08/06 01:31:19;;;;;;;13.25;8.30;;;20.10;99.90;;;;;;5010115;28;20068;-84
2023/08/06 01:33:49;;;;;;;9.82;7.90;;;20.00;99.90;;;;;;5012911;28;20398;-84
2023/08/06 01:36:19;;;;;;;8.60;7.07;;;20.00;99.90;;;;;;5011403;28;20156;-84
2023/08/06 01:38:47;;;;;;;9.13;7.30;;;20.00;99.90;;;;;;5012174;28;20421;-84
2023/08/06 01:41:14;;;;;;;10.48;7.28;;;20.00;99.90;;;;;;5010216;28;20578;-85
2023/08/06 01:43:42;;;;;;;10.75;7.40;;;20.10;99.90;;;;;;5025935;28;20052;-85
2023/08/06 01:46:09;;;;;;;11.77;6.88;;;20.00;99.90;;;;;;5011606;28;20041;-84
2023/08/06 01:48:37;;;;;;;7.88;7.00;;;20.00;99.90;;;;;;5012187;28;20045;-84
2023/08/06 01:51:06;;;;;;;10.32;7.15;;;20.00;99.90;;;;;;5010624;28;20121;-84
2023/08/06 01:53:35;;;;;;;9.10;6.63;;;20.00;99.90;;;;;;5013516;28;20041;-85
2023/08/06 01:56:02;;;;;;;9.50;5.70;;;20.00;99.90;;;;;;5045923;28;20074;-85
2023/08/06 01:58:29;;;;;;;7.80;5.45;;;20.10;99.90;;;;;;5026750;28;20046;-84
2023/08/06 02:00:57;;;;;;;6.28;5.13;;;20.10;99.90;;;;;;5013190;28;20144;-84
2023/08/06 02:03:25;;;;;;;6.20;5.20;;;20.10;99.90;;;;;;5013053;28;20089;-84
2023/08/06 02:05:54;;;;;;;7.63;5.28;;;20.10;99.90;;;;;;5010965;28;20046;-84
2023/08/06 02:08:22;;;;;;;6.95;5.03;;;20.10;99.90;;;;;;5010664;28;20532;-84
2023/08/06 02:10:51;;;;;;;6.57;4.60;;;20.10;99.90;;;;;;5011421;28;20052;-84
2023/08/06 02:13:18;;;;;;;6.85;4.80;;;20.00;99.90;;;;;;5009963;28;20228;-83
2023/08/06 02:15:47;;;;;;;5.78;4.68;;;19.90;99.90;;;;;;5010005;28;20053;-84
2023/08/06 02:18:14;;;;;;;7.72;4.50;;;19.80;99.90;;;;;;5011667;28;20141;-84
2023/08/06 02:20:42;;;;;;;7.22;4.63;;;19.80;99.90;;;;;;5009899;28;20134;-83
2023/08/06 02:23:10;;;;;;;7.97;5.00;;;19.80;99.90;;;;;;5008968;28;20137;-83
2023/08/06 02:25:38;;;;;;;4.90;4.00;;;19.70;99.90;;;;;;5009147;28;20497;-83
2023/08/06 02:28:07;;;;;;;5.75;4.60;;;19.70;99.90;;;;;;5011915;28;20497;-85
2023/08/06 02:30:34;;;;;;;5.43;4.50;;;19.70;99.90;;;;;;5015781;28;20386;-83
2023/08/06 02:33:02;;;;;;;7.43;5.00;;;19.60;99.90;;;;;;5020172;28;20034;-82
2023/08/06 02:35:30;;;;;;;6.72;5.30;;;19.60;99.90;;;;;;5018757;28;20120;-84
2023/08/06 02:37:58;;;;;;;8.60;5.10;;;19.50;99.90;;;;;;5012117;28;20046;-83
2023/08/06 02:40:26;;;;;;;6.30;4.43;;;19.50;99.90;;;;;;5010160;28;20112;-84
2023/08/06 02:42:54;;;;;;;7.18;4.55;;;19.40;99.90;;;;;;5026490;28;20060;-83
2023/08/06 02:45:23;;;;;;;6.15;5.03;;;19.40;99.90;;;;;;5009836;28;20437;-84
2023/08/06 02:47:51;;;;;;;5.47;4.10;;;19.40;99.90;;;;;;5011817;28;20049;-83
2023/08/06 02:50:18;;;;;;;8.05;4.28;;;19.30;99.90;;;;;;5010099;28;20052;-85
2023/08/06 02:52:45;;;;;;;6.03;4.38;;;19.40;99.90;;;;;;5008908;28;20056;-84
2023/08/06 02:55:13;;;;;;;4.53;3.80;;;19.40;99.90;;;;;;5009739;28;20394;-84
2023/08/06 02:57:45;;;;;;;5.65;4.45;;;19.30;99.90;;;;;;5010453;28;20045;-83
2023/08/06 03:00:12;;;;;;;6.65;3.75;;;19.30;99.90;;;;;;5009585;28;20049;-84
2023/08/06 03:02:42;;;;;;;4.97;4.00;;;19.30;99.90;;;;;;5008440;28;20050;-84
2023/08/06 03:05:32;;;;;;;5.70;3.70;;;19.30;99.90;;;;;;5010710;28;20394;-84
2023/08/06 03:07:59;;;;;;;5.53;3.85;;;19.30;99.90;;;;;;5023856;28;20068;-84
2023/08/06 03:10:30;;;;;;;5.97;3.72;;;19.30;99.90;;;;;;5028858;28;20049;-83
2023/08/06 03:13:01;;;;;;;6.65;4.13;;;19.30;99.90;;;;;;5029990;28;20061;-84
2023/08/06 03:15:29;;;;;;;6.00;3.38;;;19.40;99.90;;;;;;5015418;28;20116;-84
2023/08/06 03:17:59;;;;;;;3.95;3.47;;;19.40;99.90;;;;;;5027318;28;20738;-85
2023/08/06 03:20:27;;;;;;;6.53;3.95;;;19.40;99.90;;;;;;5015663;28;20038;-84
2023/08/06 03:22:54;;;;;;;5.63;3.75;;;19.40;99.90;;;;;;5009553;28;20501;-84
2023/08/06 03:25:22;;;;;;;4.88;3.58;;;19.50;99.90;;;;;;5009858;28;20053;-84
2023/08/06 03:27:50;;;;;;;6.13;3.85;;;19.50;99.90;;;;;;5010458;28;20066;-84
2023/08/06 03:30:20;;;;;;;6.78;3.92;;;19.50;99.90;;;;;;5010277;28;20116;-84
2023/08/06 03:32:49;;;;;;;6.72;4.78;;;19.50;99.90;;;;;;5008573;28;20048;-85
2023/08/06 03:35:21;;;;;;;6.55;4.43;;;19.60;99.90;;;;;;5022924;28;20042;-83
2023/08/06 03:37:49;;;;;;;9.45;5.57;;;19.50;99.90;;;;;;5009231;28;20426;-83
2023/08/06 03:40:17;;;;;;;6.80;5.22;;;19.60;99.90;;;;;;5008860;28;20065;-84
2023/08/06 03:42:45;;;;;;;6.38;5.05;;;19.60;99.90;;;;;;5009120;28;20052;-85
2023/08/06 03:45:12;;;;;;;9.32;4.82;;;19.60;99.90;;;;;;5008329;28;20046;-84
2023/08/06 03:47:42;;;;;;;8.95;5.30;;;19.60;99.90;;;;;;5007754;28;20147;-84
2023/08/06 03:50:10;;;;;;;8.05;5.03;;;19.60;99.90;;;;;;5009025;28;20101;-84
2023/08/06 03:52:39;;;;;;;9.85;5.20;;;19.60;99.90;;;;;;5007681;28;20092;-85
2023/08/06 03:55:07;;;;;;;11.35;6.47;;;19.60;99.90;;;;;;5008994;28;20038;-83
2023/08/06 03:57:35;;;;;;;8.55;5.55;;;19.60;99.90;;;;;;5008697;28;20058;-83
2023/08/06 04:00:03;;;;;;;5.30;4.15;;;19.60;99.90;;;;;;5007567;28;20512;-84
2023/08/06 04:02:42;;;;;;;6.47;4.70;;;19.60;99.90;;;;;;5007851;28;20169;-84
2023/08/06 04:05:11;;;;;;;8.80;4.60;;;19.60;99.90;;;;;;5007196;28;20390;-84
2023/08/06 04:07:40;;;;;;;6.47;4.50;;;19.60;99.90;;;;;;5008864;28;20042;-84
2023/08/06 04:10:08;;;;;;;7.70;4.28;;;19.70;99.90;;;;;;5009799;28;20050;-84
2023/08/06 04:12:36;;;;;;;9.25;4.25;;;19.70;99.90;;;;;;5008755;28;20054;-84
2023/08/06 04:15:05;;;;;;;6.60;4.25;;;19.70;99.90;;;;;;5007930;28;20053;-83
2023/08/06 04:17:32;;;;;;;11.38;5.03;;;19.70;99.90;;;;;;5018428;28;20049;-84
2023/08/06 04:20:00;;;;;;;9.82;4.80;;;19.70;99.90;;;;;;5037792;28;20038;-84
2023/08/06 04:22:28;;;;;;;5.85;4.60;;;19.70;99.90;;;;;;5010702;28;20042;-84
2023/08/06 04:24:56;;;;;;;7.32;4.93;;;19.70;99.90;;;;;;5009336;28;20049;-86
2023/08/06 04:27:24;;;;;;;8.05;5.60;;;19.70;99.90;;;;;;5008322;28;20077;-84
2023/08/06 04:29:53;;;;;;;5.72;5.13;;;19.80;99.90;;;;;;5032060;28;20042;-84
2023/08/06 04:32:21;;;;;;;5.68;4.93;;;19.70;99.90;;;;;;5011285;28;20512;-84
2023/08/06 04:34:52;;;;;;;6.95;5.55;;;19.80;99.90;;;;;;5009961;28;20066;-84
2023/08/06 04:37:20;;;;;;;6.63;5.57;;;19.80;99.90;;;;;;5013077;28;20042;-83
2023/08/06 04:39:47;;;;;;;9.50;6.47;;;19.80;99.90;;;;;;5024575;28;20081;-84
2023/08/06 04:42:16;;;;;;;7.45;5.05;;;19.70;99.90;;;;;;5014453;28;20050;-83
2023/08/06 04:44:43;;;;;;;6.70;5.50;;;19.70;99.90;;;;;;5014469;28;20046;-84
2023/08/06 04:47:10;;;;;;;8.27;6.07;;;19.80;99.90;;;;;;5014872;28;20052;-83
2023/08/06 04:49:38;;;;;;;7.40;5.57;;;19.90;99.90;;;;;;5015426;28;20057;-82
2023/08/06 04:52:06;;;;;;;6.97;5.20;;;19.90;99.90;;;;;;5017071;28;20061;-82
2023/08/06 04:54:33;;;;;;;6.38;4.60;;;20.00;99.90;;;;;;5015879;28;20069;-84
2023/08/06 04:57:01;;;;;;;7.80;4.97;;;20.10;99.90;;;;;;5013742;28;20490;-83
2023/08/06 04:59:29;;;;;;;6.68;5.10;;;20.20;99.90;;;;;;5015164;28;20116;-83
2023/08/06 05:01:57;;;;;;;7.15;4.32;;;20.20;99.90;;;;;;5014751;28;20048;-82
2023/08/06 05:04:24;;;;;;;6.07;4.35;;;20.40;99.90;;;;;;5011663;28;20046;-85
2023/08/06 05:06:52;;;;;;;5.38;4.00;;;20.40;99.90;;;;;;5014267;28;20046;-83
2023/08/06 05:09:19;;;;;;;9.00;3.35;;;20.60;99.90;;;;;;5013708;28;20046;-84
2023/08/06 05:11:47;;;;;;;4.13;3.20;;;20.80;99.90;;;;;;5016052;28;20514;-82
2023/08/06 05:14:15;;;;;;;4.22;2.83;;;20.90;99.90;;;;;;5021794;28;20077;-84
2023/08/06 05:16:43;;;;;;;4.82;3.30;;;20.90;99.90;;;;;;5024555;28;20046;-84
2023/08/06 05:19:11;;;;;;;5.30;3.40;;;20.90;99.90;;;;;;5025382;28;20043;-83
2023/08/06 05:21:38;;;;;;;3.67;2.10;;;20.90;99.90;;;;;;5023877;28;20037;-83
2023/08/06 05:24:06;;;;;;;3.20;1.85;;;20.90;99.90;;;;;;5025154;28;20535;-84
2023/08/06 05:26:33;;;;;;;4.60;2.33;;;20.90;99.90;;;;;;5026558;28;20132;-83
2023/08/06 05:29:00;;;;;;;2.85;2.00;;;20.90;99.90;;;;;;5028026;28;20042;-83
2023/08/06 05:31:28;;;;;;;2.67;1.85;;;21.00;99.90;;;;;;5024520;28;20046;-83
2023/08/06 05:33:57;;;;;;;3.70;1.73;;;21.00;99.90;;;;;;5022139;28;20044;-83
2023/08/06 05:36:25;;;;;;;3.08;1.83;;;21.10;99.90;;;;;;5031085;28;20346;-84
2023/08/06 05:38:52;;;;;;;4.15;2.08;;;21.10;99.90;;;;;;5034980;28;20140;-83
2023/08/06 05:41:19;;;;;;;7.05;2.78;;;21.20;99.90;;;;;;5035003;28;20026;-83
2023/08/06 05:43:47;;;;;;;7.00;2.83;;;21.30;99.90;;;;;;5033738;28;20072;-83
2023/08/06 05:46:14;;;;;;;4.13;2.90;;;21.40;99.90;;;;;;5033806;28;20545;-82
2023/08/06 05:48:41;;;;;;;3.70;2.90;;;21.50;99.90;;;;;;5034837;28;20053;-84
2023/08/06 05:51:12;;;;;;;4.85;3.20;;;21.70;99.90;;;;;;5030802;28;20046;-83
2023/08/06 05:53:40;;;;;;;5.53;2.30;;;21.70;99.90;;;;;;5028794;28;20053;-83
2023/08/06 05:56:07;;;;;;;3.38;2.25;;;21.80;99.90;;;;;;5024048;28;20048;-83
2023/08/06 05:58:34;;;;;;;4.30;2.17;;;21.80;99.90;;;;;;5020824;28;20133;-82
2023/08/06 06:01:02;;;;;;;5.93;2.40;;;21.90;99.90;;;;;;5024947;28;20038;-83
2023/08/06 06:03:29;;;;;;;3.67;2.50;;;21.80;99.90;;;;;;5023669;28;20089;-83
2023/08/06 06:05:57;;;;;;;4.18;2.95;;;21.70;99.90;;;;;;5022117;28;20077;-84
2023/08/06 06:08:25;;;;;;;6.15;2.50;;;21.70;99.90;;;;;;5013444;28;20425;-83
2023/08/06 06:10:53;;;;;;;6.97;5.55;;;21.70;99.90;;;;;;5028659;28;20148;-85
2023/08/06 06:13:37;;;;;;;4.45;2.40;;;21.70;99.90;;;;;;5013371;28;20421;-83
2023/08/06 06:16:06;;;;;;;6.90;3.65;;;21.70;99.90;;;;;;5013972;28;20050;-83
2023/08/06 06:18:33;;;;;;;5.90;3.10;;;21.60;99.90;;;;;;5015755;28;20073;-82
2023/08/06 06:21:00;;;;;;;3.83;2.70;;;21.60;99.90;;;;;;5013727;28;20073;-84
2023/08/06 06:23:29;;;;;;;2.85;2.30;;;21.70;99.90;;;;;;5013804;28;20089;-84
2023/08/06 06:25:56;;;;;;;5.63;3.03;;;21.90;99.90;;;;;;5013763;28;20479;-83
2023/08/06 06:28:24;;;;;;;6.93;4.55;;;21.80;99.90;;;;;;5018812;28;20050;-83
2023/08/06 06:30:53;;;;;;;5.78;3.33;;;21.90;99.90;;;;;;5010340;28;20505;-83
2023/08/06 06:33:20;;;;;;;4.50;3.13;;;22.00;99.90;;;;;;5011469;28;20038;-84
2023/08/06 06:35:48;;;;;;;6.70;4.00;;;22.30;99.90;;;;;;5009851;28;20054;-83
2023/08/06 06:38:15;;;;;;;9.52;5.80;;;22.60;99.90;;;;;;5010725;28;20038;-83
2023/08/06 06:40:56;;;;;;;8.15;3.00;;;22.80;99.90;;;;;;5014368;28;20088;-88
2023/08/06 06:43:25;;;;;;;7.78;5.70;;;23.10;99.90;;;;;;5014630;28;20532;-83
2023/08/06 06:45:58;;;;;;;5.20;2.38;;;23.20;99.90;;;;;;5011784;28;20049;-82
2023/08/06 06:48:27;;;;;;;4.68;2.10;;;23.50;99.90;;;;;;5016552;28;20065;-82
2023/08/06 06:50:55;;;;;;;4.85;2.63;;;23.60;99.90;;;;;;5010245;28;20566;-83
2023/08/06 06:53:27;;;;;;;3.63;1.70;;;23.80;99.90;;;;;;5008397;28;20125;-83
2023/08/06 06:55:55;;;;;;;4.15;2.38;;;23.80;99.90;;;;;;5009435;28;20053;-82
2023/08/06 06:58:23;;;;;;;3.92;2.45;;;23.50;99.90;;;;;;5008298;28;20124;-82
2023/08/06 07:00:50;;;;;;;5.10;3.10;;;23.50;99.90;;;;;;5009136;28;20045;-83
2023/08/06 07:03:18;;;;;;;4.75;2.40;;;23.40;99.90;;;;;;5008935;28;20528;-82
2023/08/06 07:05:46;;;;;;;3.55;1.95;;;23.50;99.90;;;;;;5009063;28;20064;-82
2023/08/06 07:08:13;;;;;;;3.30;2.17;;;23.90;99.90;;;;;;5009837;28;20038;-83
2023/08/06 07:10:42;;;;;;;3.67;1.55;;;24.60;99.90;;;;;;5011583;28;20045;-83
2023/08/06 07:13:11;;;;;;;5.50;1.80;;;24.70;99.90;;;;;;4990156;28;21875;-82
2023/08/06 07:15:38;;;;;;;6.32;2.42;;;24.90;99.90;;;;;;5009958;28;20034;-83
2023/08/06 07:18:08;;;;;;;3.15;2.13;;;25.10;99.90;;;;;;5008336;28;20052;-86
2023/08/06 07:20:36;;;;;;;4.32;2.90;;;25.10;99.90;;;;;;5009440;28;20041;-84
2023/08/06 07:23:03;;;;;;;3.80;2.10;;;25.10;99.90;;;;;;5008652;28;20048;-81
2023/08/06 07:25:31;;;;;;;7.70;2.40;;;25.00;99.90;;;;;;5009111;28;20260;-84
2023/08/06 07:27:58;;;;;;;3.42;1.95;;;25.10;99.90;;;;;;5009990;28;20042;-82
2023/08/06 07:30:27;;;;;;;3.78;2.30;;;25.40;99.90;;;;;;5009487;28;20042;-81
2023/08/06 07:32:55;;;;;;;3.25;1.67;;;25.70;99.90;;;;;;5009826;28;20050;-85
2023/08/06 07:35:32;;;;;;;2.95;1.60;;;25.70;99.90;;;;;;5010735;28;20053;-84
2023/08/06 07:38:02;;;;;;;2.97;2.13;;;25.90;99.90;;;;;;5006867;28;20050;-82
2023/08/06 07:40:30;;;;;;;3.83;1.63;;;26.00;99.90;;;;;;5007967;28;20433;-83
2023/08/06 07:42:58;;;;;;;2.40;1.50;;;25.90;99.90;;;;;;5008599;28;20387;-83
2023/08/06 07:45:28;;;;;;;3.55;1.40;;;25.50;99.90;;;;;;5010185;28;20030;-83
2023/08/06 07:47:57;;;;;;;4.00;2.30;;;25.70;99.90;;;;;;5010010;28;20074;-83
2023/08/06 07:50:27;;;;;;;7.32;2.65;;;26.20;99.90;;;;;;5017918;28;20057;-83
2023/08/06 07:52:55;;;;;;;5.63;1.80;;;26.70;99.90;;;;;;5029085;28;20037;-89
2023/08/06 07:55:22;;;;;;;2.30;1.20;;;26.80;99.90;;;;;;5020647;28;20058;-82
2023/08/06 07:57:49;;;;;;;3.55;2.30;;;26.70;99.90;;;;;;5009865;28;20148;-86
2023/08/06 08:00:19;;;;;;;3.33;1.55;;;26.60;99.90;;;;;;5013025;28;20084;-92
2023/08/06 08:02:50;;;;;;;3.97;2.17;;;26.50;99.90;;;;;;5007490;28;20053;-85
2023/08/06 08:05:17;;;;;;;3.35;1.85;;;26.30;99.90;;;;;;5073545;22;20053;-85
2023/08/06 08:07:45;;;;;;;3.58;1.55;;;26.30;99.90;;;;;;5010291;28;20055;-86
2023/08/06 08:10:12;;;;;;;4.82;2.40;;;26.40;99.90;;;;;;5009632;28;20073;-87
2023/08/06 08:12:40;;;;;;;5.78;2.10;;;26.60;99.90;;;;;;5010776;28;20027;-85
2023/08/06 08:15:08;;;;;;;4.38;2.88;;;26.80;99.90;;;;;;5010721;28;20019;-90
2023/08/06 08:17:42;;;;;;;5.10;3.20;;;26.70;99.90;;;;;;4993802;28;20046;-87
2023/08/06 08:20:12;;;;;;;4.60;2.50;;;26.30;99.90;;;;;;5022291;22;20076;-77
2023/08/06 08:22:40;;;;;;;5.65;4.03;;;26.20;99.90;;;;;;5042324;28;20385;-79
2023/08/06 08:25:07;;;;;;;12.30;6.93;;;26.10;99.90;;;;;;5019977;28;20029;-76
2023/08/06 08:27:35;;;;;;;14.30;6.53;;;26.00;99.90;;;;;;5024121;28;20065;-80
2023/08/06 08:30:02;;;;;;;8.90;6.45;;;26.20;99.90;;;;;;5021819;28;20045;-79
2023/08/06 08:32:30;;;;;;;6.10;4.05;;;26.50;99.90;;;;;;5018821;28;20048;-78
2023/08/06 08:35:02;;;;;;;19.10;15.80;;;26.80;99.90;;;;;;5022309;28;20042;-80
2023/08/06 08:37:31;;;;;;;48.30;33.70;;;27.00;99.90;;;;;;5019532;28;20088;-82
2023/08/06 08:40:00;;;;;;;6.63;3.63;;;27.00;99.90;;;;;;5020379;28;20057;-81
2023/08/06 08:42:29;;;;;;;5.10;2.72;;;27.10;99.90;;;;;;5021751;28;20069;-81
2023/08/06 08:44:57;;;;;;;2.58;1.70;;;27.10;99.90;;;;;;5020119;28;20061;-82
2023/08/06 08:47:26;;;;;;;4.10;2.15;;;27.10;99.90;;;;;;5022566;28;20042;-80
2023/08/06 08:49:56;;;;;;;6.60;3.35;;;27.10;99.90;;;;;;5028602;28;20520;-82
2023/08/06 08:52:23;;;;;;;3.35;2.70;;;27.30;99.90;;;;;;5026109;28;20069;-79
2023/08/06 08:54:54;;;;;;;3.40;1.95;;;27.40;99.90;;;;;;5026899;28;20048;-79
2023/08/06 08:57:22;;;;;;;3.70;2.25;;;27.60;99.90;;;;;;5023007;28;20077;-79
2023/08/06 08:59:49;;;;;;;5.50;3.92;;;27.70;99.90;;;;;;5023925;28;20131;-79
2023/08/06 09:02:17;;;;;;;6.38;2.97;;;27.60;99.90;;;;;;5021296;28;20065;-79
2023/08/06 09:04:49;;;;;;;5.07;3.40;;;27.20;99.90;;;;;;5021646;28;20107;-80
2023/08/06 09:07:20;;;;;;;2.33;1.67;;;27.20;99.90;;;;;;5023824;28;20113;-79
2023/08/06 09:09:53;;;;;;;4.30;2.15;;;27.10;99.90;;;;;;5019821;28;20033;-80
2023/08/06 09:12:21;;;;;;;4.40;3.63;;;27.40;99.90;;;;;;5018132;28;20034;-81
2023/08/06 09:14:48;;;;;;;5.80;3.30;;;27.50;99.90;;;;;;5020238;28;20034;-80
2023/08/06 09:17:19;;;;;;;3.58;2.50;;;27.60;99.90;;;;;;5018279;28;20041;-78
2023/08/06 09:19:49;;;;;;;7.53;5.60;;;28.00;99.90;;;;;;5020905;28;20103;-78
2023/08/06 09:22:16;;;;;;;6.40;3.38;;;27.90;99.90;;;;;;5011422;28;20099;-76
2023/08/06 09:24:44;;;;;;;5.43;2.97;;;28.00;99.90;;;;;;5015371;28;20044;-80
2023/08/06 09:27:16;;;;;;;3.50;1.95;;;28.00;99.90;;;;;;5023233;28;20447;-77
2023/08/06 09:29:45;;;;;;;3.70;2.55;;;27.10;99.90;;;;;;5023734;28;20590;-77
2023/08/06 09:32:12;;;;;;;4.57;3.17;;;26.80;99.90;;;;;;5020767;28;20073;-78
2023/08/06 09:34:41;;;;;;;3.65;2.20;;;26.80;99.90;;;;;;5018065;28;20469;-77
2023/08/06 09:37:11;;;;;;;2.75;1.63;;;26.90;99.90;;;;;;5023276;28;20038;-78
2023/08/06 09:39:40;;;;;;;4.03;1.25;;;26.80;99.90;;;;;;5019998;28;20048;-80
2023/08/06 09:42:07;;;;;;;2.33;1.50;;;26.50;99.90;;;;;;5035539;28;20061;-80
2023/08/06 09:44:36;;;;;;;4.53;2.30;;;26.30;99.90;;;;;;5035364;28;20046;-78
2023/08/06 09:47:04;;;;;;;4.10;1.60;;;26.50;99.90;;;;;;5035956;28;20050;-79
2023/08/06 09:49:45;;;;;;;4.13;2.70;;;26.90;99.90;;;;;;5033393;28;20069;-78
2023/08/06 09:52:13;;;;;;;5.65;3.00;;;27.30;99.90;;;;;;5039551;28;20041;-78
2023/08/06 09:54:41;;;;;;;9.05;5.72;;;27.40;99.90;;;;;;5037433;28;20037;-83
2023/08/06 09:57:09;;;;;;;3.58;2.60;;;27.40;99.90;;;;;;5035503;28;20049;-82
2023/08/06 09:59:39;;;;;;;2.83;1.80;;;27.20;99.90;;;;;;5022284;28;20042;-78
2023/08/06 10:02:13;;;;;;;5.45;1.63;;;26.80;99.90;;;;;;5019423;28;20060;-79
2023/08/06 10:04:40;;;;;;;4.43;2.13;;;26.50;99.90;;;;;;5015755;28;20590;-80
2023/08/06 10:07:08;;;;;;;3.40;1.95;;;26.40;99.90;;;;;;5044063;28;20050;-79
2023/08/06 10:09:35;;;;;;;3.25;1.40;;;26.50;99.90;;;;;;5029556;28;20025;-80
2023/08/06 10:12:02;;;;;;;5.75;2.05;;;26.70;99.90;;;;;;5048730;28;20061;-80
2023/08/06 10:14:33;;;;;;;8.38;6.30;;;27.10;99.90;;;;;;5046242;28;20045;-80
2023/08/06 10:17:02;;;;;;;8.35;5.82;;;27.50;99.90;;;;;;5058145;28;20045;-78
2023/08/06 10:19:32;;;;;;;13.13;8.23;;;27.60;99.90;;;;;;5024475;28;20078;-80
2023/08/06 10:22:13;;;;;;;7.25;4.50;;;27.90;99.90;;;;;;5036295;28;20325;-81
2023/08/06 10:24:53;;;;;;;10.80;8.45;;;28.10;99.90;;;;;;5022773;28;20092;-80
2023/08/06 10:27:29;;;;;;;7.43;4.65;;;28.50;99.90;;;;;;5020462;28;20041;-80
2023/08/06 10:29:56;;;;;;;3.92;2.50;;;28.70;99.90;;;;;;5026866;28;20074;-80
2023/08/06 10:32:48;;;;;;;2.95;1.65;;;28.60;99.90;;;;;;5016379;28;20248;-81
2023/08/06 10:35:30;;;;;;;3.10;1.40;;;28.30;99.90;;;;;;5035974;28;20046;-81
2023/08/06 10:38:00;;;;;;;2.28;1.58;;;28.30;99.90;;;;;;5040998;28;20038;-81
2023/08/06 10:40:29;;;;;;;5.63;1.75;;;28.60;99.90;;;;;;5049432;28;20045;-80
2023/08/06 10:43:01;;;;;;;2.08;1.38;;;28.60;99.90;;;;;;5021280;28;20088;-81
2023/08/06 10:45:30;;;;;;;4.85;2.20;;;28.80;99.90;;;;;;5017887;28;20052;-82
2023/08/06 10:47:59;;;;;;;4.07;2.15;;;28.70;99.90;;;;;;5022588;28;20491;-83
2023/08/06 10:50:27;;;;;;;2.97;1.88;;;28.80;99.90;;;;;;5022059;28;20042;-80
2023/08/06 10:52:54;;;;;;;2.72;1.38;;;29.00;99.90;;;;;;5020533;28;20497;-83
2023/08/06 10:55:26;;;;;;;3.78;1.70;;;29.00;99.90;;;;;;5017971;28;20041;-81
2023/08/06 10:57:54;;;;;;;3.25;2.13;;;29.30;99.90;;;;;;5020689;28;20045;-81
2023/08/06 11:00:23;;;;;;;5.53;3.10;;;29.40;99.90;;;;;;5021482;28;20452;-80
2023/08/06 11:02:51;;;;;;;5.75;3.38;;;29.50;99.90;;;;;;5019123;28;20092;-82
2023/08/06 11:05:20;;;;;;;3.92;2.60;;;29.50;99.90;;;;;;5020589;28;20060;-82
2023/08/06 11:07:49;;;;;;;3.40;1.80;;;29.40;99.90;;;;;;5021308;28;20041;-81
2023/08/06 11:10:16;;;;;;;3.63;2.25;;;29.40;99.90;;;;;;5021475;28;20060;-81
2023/08/06 11:12:45;;;;;;;5.65;3.95;;;29.50;99.90;;;;;;5027370;28;20041;-82
2023/08/06 11:15:12;;;;;;;4.97;2.88;;;29.20;99.90;;;;;;5027405;28;20052;-80
2023/08/06 11:17:43;;;;;;;3.90;2.40;;;28.90;99.90;;;;;;5023891;28;20067;-82
2023/08/06 11:20:20;;;;;;;5.50;4.15;;;28.50;99.90;;;;;;5024210;28;20049;-80
2023/08/06 11:22:49;;;;;;;6.63;3.22;;;28.00;99.90;;;;;;5037398;28;20041;-80
2023/08/06 11:25:22;;;;;;;4.97;2.72;;;27.30;99.90;;;;;;5035925;28;20480;-81
2023/08/06 11:27:49;;;;;;;5.30;3.50;;;26.80;99.90;;;;;;5037964;28;20125;-81
2023/08/06 11:30:17;;;;;;;8.27;6.45;;;26.50;99.90;;;;;;5044152;28;20451;-79
2023/08/06 11:32:50;;;;;;;14.10;5.43;;;26.10;99.90;;;;;;5041524;28;20042;-79
2023/08/06 11:35:22;;;;;;;5.03;2.15;;;25.80;99.90;;;;;;5042514;28;20050;-80
2023/08/06 11:37:50;;;;;;;2.78;1.75;;;25.60;99.90;;;;;;5029358;28;20045;-78
2023/08/06 11:40:18;;;;;;;5.53;2.25;;;25.40;99.90;;;;;;5046248;28;20041;-80
2023/08/06 11:42:48;;;;;;;5.28;3.50;;;25.00;99.90;;;;;;5022523;28;20426;-79
2023/08/06 11:45:18;;;;;;;3.85;2.50;;;24.60;99.90;;;;;;5048867;28;20033;-80
2023/08/06 11:47:52;;;;;;;8.70;5.97;;;24.40;99.90;;;;;;5043463;28;20523;-78
2023/08/06 11:50:24;;;;;;;5.95;5.00;;;24.30;99.90;;;;;;5053550;28;20056;-79
2023/08/06 11:52:57;;;;;;;12.40;8.57;;;24.10;99.90;;;;;;5047290;28;20072;-79
2023/08/06 11:55:28;;;;;;;11.38;6.85;;;24.00;99.90;;;;;;5038290;28;20041;-78
2023/08/06 11:57:56;;;;;;;9.32;5.28;;;23.80;99.90;;;;;;5045673;28;20049;-80
2023/08/06 12:00:27;;;;;;;5.80;2.22;;;23.80;99.90;;;;;;5051195;28;20044;-79
2023/08/06 12:02:55;;;;;;;5.88;1.60;;;23.80;99.90;;;;;;5045768;28;20099;-80
2023/08/06 12:05:24;;;;;;;2.53;1.42;;;23.70;99.90;;;;;;5027703;28;20052;-79
2023/08/06 12:07:56;;;;;;;9.65;2.80;;;23.60;99.90;;;;;;5044544;28;20514;-79
2023/08/06 12:10:26;;;;;;;4.78;1.50;;;23.20;99.90;;;;;;5024520;28;20068;-81
2023/08/06 12:12:57;;;;;;;3.03;1.70;;;20.90;99.90;;;;;;5042865;28;20492;-80
2023/08/06 12:15:24;;;;;;;2.95;1.27;;;19.70;99.90;;;;;;5043991;28;20084;-81
2023/08/06 12:17:53;;;;;;;2.40;1.63;;;19.10;99.90;;;;;;5040809;28;20037;-82
2023/08/06 12:20:21;;;;;;;8.15;2.78;;;19.00;99.90;;;;;;5054691;28;20059;-82
2023/08/06 12:23:18;;;;;;;4.65;1.90;;;19.00;99.90;;;;;;5066374;28;20518;-83
2023/08/06 12:25:46;;;;;;;5.55;2.85;;;19.10;99.90;;;;;;5051372;28;20044;-81
2023/08/06 12:28:13;;;;;;;7.13;3.55;;;19.10;99.90;;;;;;5041130;28;20060;-81
2023/08/06 12:30:44;;;;;;;6.85;3.80;;;19.10;99.90;;;;;;5040623;28;20156;-81
2023/08/06 12:33:11;;;;;;;6.90;3.95;;;19.10;99.90;;;;;;5040722;28;20472;-81
2023/08/06 12:35:39;;;;;;;9.38;3.85;;;19.00;99.90;;;;;;5039838;28;20087;-81
2023/08/06 12:38:06;;;;;;;6.53;3.50;;;19.00;99.90;;;;;;5036287;28;20140;-80
2023/08/06 12:40:37;;;;;;;5.93;3.33;;;19.00;99.90;;;;;;5025327;28;20267;-82
2023/08/06 12:43:04;;;;;;;7.38;3.55;;;19.00;99.90;;;;;;5038114;28;20399;-81
2023/08/06 12:45:31;;;;;;;6.53;3.90;;;19.00;99.90;;;;;;5041522;28;20066;-80
2023/08/06 12:47:59;;;;;;;11.90;7.90;;;19.10;99.90;;;;;;5022502;28;20033;-80
2023/08/06 12:50:26;;;;;;;2.53;1.58;;;19.30;99.90;;;;;;5047286;28;20049;-82
2023/08/06 12:52:53;;;;;;;5.63;1.95;;;19.40;99.90;;;;;;5019232;28;20069;-81
2023/08/06 12:55:21;;;;;;;7.80;2.08;;;19.50;99.90;;;;;;5026186;28;20114;-83